createdAt,value
2017-12-26T00:01:19.174Z,33.20
2017-12-26T00:03:46.761Z,33.20
2017-12-26T00:06:14.349Z,33.20
2017-12-26T00:08:42.155Z,33.20
2017-12-26T00:11:09.920Z,33.20
2017-12-26T00:13:37.477Z,33.20
2017-12-26T00:16:05.058Z,33.00
2017-12-26T00:18:32.699Z,33.20
2017-12-26T00:21:00.294Z,33.20
2017-12-26T00:23:27.875Z,33.20
2017-12-26T00:25:55.489Z,33.20
2017-12-26T00:28:23.081Z,33.10
2017-12-26T00:30:50.768Z,32.90
2017-12-26T00:33:18.325Z,32.70
2017-12-26T00:35:46.673Z,32.60
2017-12-26T00:38:15.087Z,32.60
2017-12-26T00:40:43.455Z,32.60
2017-12-26T00:43:11.039Z,32.60
2017-12-26T00:45:39.345Z,32.50
2017-12-26T00:48:07.101Z,32.60
2017-12-26T00:50:34.671Z,32.60
2017-12-26T00:53:02.281Z,32.20
2017-12-26T00:55:30.645Z,32.80
2017-12-26T00:57:58.204Z,32.80
2017-12-26T01:00:25.766Z,32.50
2017-12-26T01:02:53.397Z,32.60
2017-12-26T01:05:21.039Z,32.80
2017-12-26T01:07:48.631Z,32.60
2017-12-26T01:10:16.267Z,32.80
2017-12-26T01:12:43.913Z,32.60
2017-12-26T01:15:11.539Z,32.60
2017-12-26T01:17:39.368Z,32.80
2017-12-26T01:20:06.963Z,32.50
2017-12-26T01:22:34.645Z,32.60
2017-12-26T01:25:03.023Z,32.70
2017-12-26T01:27:31.357Z,32.40
2017-12-26T01:29:59.100Z,32.50
2017-12-26T01:32:26.682Z,32.30
2017-12-26T01:34:54.247Z,32.40
2017-12-26T01:37:21.937Z,32.30
2017-12-26T01:39:50.359Z,32.10
2017-12-26T01:42:17.931Z,32.10
2017-12-26T01:44:45.493Z,32.10
2017-12-26T01:47:13.134Z,32.00
2017-12-26T01:49:40.709Z,31.90
2017-12-26T01:52:08.278Z,32.00
2017-12-26T01:54:35.906Z,32.00
2017-12-26T01:57:03.445Z,31.80
2017-12-26T01:59:32.062Z,31.80
2017-12-26T02:02:00.531Z,31.80
2017-12-26T02:04:28.115Z,31.80
2017-12-26T02:06:55.817Z,31.70
2017-12-26T02:09:23.372Z,31.40
2017-12-26T02:11:51.001Z,31.70
2017-12-26T02:14:18.561Z,31.40
2017-12-26T02:16:46.287Z,31.50
2017-12-26T02:19:13.827Z,31.40
2017-12-26T02:21:42.273Z,31.50
2017-12-26T02:24:09.839Z,31.50
2017-12-26T02:26:37.384Z,31.40
2017-12-26T02:29:05.078Z,31.40
2017-12-26T02:31:32.617Z,31.30
2017-12-26T02:34:00.210Z,31.30
2017-12-26T02:36:28.523Z,31.30
2017-12-26T02:38:56.054Z,31.30
2017-12-26T02:41:24.415Z,31.20
2017-12-26T02:43:53.051Z,31.40
2017-12-26T02:46:20.597Z,31.40
2017-12-26T02:48:48.215Z,31.20
2017-12-26T02:51:15.742Z,31.30
2017-12-26T02:53:43.302Z,31.20
2017-12-26T02:56:10.918Z,31.20
2017-12-26T02:58:39.247Z,31.10
2017-12-26T03:01:06.940Z,31.20
2017-12-26T03:03:34.503Z,31.20
2017-12-26T03:06:02.859Z,31.90
2017-12-26T03:08:30.414Z,31.30
2017-12-26T03:10:58.764Z,31.50
2017-12-26T03:13:26.314Z,31.00
2017-12-26T03:15:53.926Z,31.00
2017-12-26T03:18:21.538Z,30.90
2017-12-26T03:20:49.124Z,31.00
2017-12-26T03:23:16.696Z,30.90
2017-12-26T03:25:44.358Z,30.90
2017-12-26T03:28:11.906Z,30.80
2017-12-26T03:30:39.473Z,30.80
2017-12-26T03:33:07.082Z,30.70
2017-12-26T03:35:34.648Z,30.90
2017-12-26T03:38:02.370Z,30.80
2017-12-26T03:40:30.001Z,30.70
2017-12-26T03:42:57.594Z,30.70
2017-12-26T03:45:25.186Z,30.60
2017-12-26T03:47:52.760Z,30.60
2017-12-26T03:50:20.565Z,30.60
2017-12-26T03:52:48.122Z,30.50
2017-12-26T03:55:15.750Z,30.80
2017-12-26T03:57:43.462Z,30.50
2017-12-26T04:00:12.569Z,30.50
2017-12-26T04:02:40.902Z,30.40
2017-12-26T04:05:08.486Z,30.40
2017-12-26T04:07:36.065Z,30.40
2017-12-26T04:10:04.413Z,30.50
2017-12-26T04:12:31.966Z,30.50
2017-12-26T04:14:59.530Z,30.60
2017-12-26T04:17:27.066Z,30.60
2017-12-26T04:19:54.652Z,30.60
2017-12-26T04:22:22.314Z,30.50
2017-12-26T04:24:49.874Z,30.40
2017-12-26T04:27:17.605Z,30.40
2017-12-26T04:29:45.187Z,30.50
2017-12-26T04:32:12.749Z,30.40
2017-12-26T04:34:40.482Z,30.60
2017-12-26T04:37:08.065Z,30.30
2017-12-26T04:39:35.598Z,30.40
2017-12-26T04:42:03.165Z,30.40
2017-12-26T04:44:30.769Z,30.40
2017-12-26T04:46:58.326Z,30.60
2017-12-26T04:49:25.878Z,30.30
2017-12-26T04:51:53.466Z,30.40
2017-12-26T04:54:21.788Z,30.30
2017-12-26T04:56:49.349Z,30.30
2017-12-26T04:59:17.316Z,30.30
2017-12-26T05:01:44.905Z,30.20
2017-12-26T05:04:12.466Z,30.20
2017-12-26T05:06:40.116Z,30.10
2017-12-26T05:09:07.690Z,30.10
2017-12-26T05:11:35.262Z,30.20
2017-12-26T05:14:02.857Z,30.10
2017-12-26T05:16:30.399Z,30.10
2017-12-26T05:18:58.734Z,30.00
2017-12-26T05:21:26.322Z,30.10
2017-12-26T05:23:53.884Z,30.00
2017-12-26T05:26:22.440Z,30.30
2017-12-26T05:28:49.976Z,30.00
2017-12-26T05:31:17.556Z,30.00
2017-12-26T05:33:45.086Z,30.00
2017-12-26T05:36:12.802Z,30.10
2017-12-26T05:38:40.388Z,30.00
2017-12-26T05:41:08.080Z,30.00
2017-12-26T05:43:35.662Z,30.00
2017-12-26T05:46:03.229Z,30.00
2017-12-26T05:48:30.821Z,30.00
2017-12-26T05:50:59.136Z,30.00
2017-12-26T05:53:26.874Z,30.00
2017-12-26T05:55:54.424Z,30.00
2017-12-26T05:58:22.854Z,30.00
2017-12-26T06:00:50.410Z,30.10
2017-12-26T06:03:18.119Z,30.00
2017-12-26T06:05:46.424Z,30.00
2017-12-26T06:08:14.063Z,30.00
2017-12-26T06:10:42.421Z,30.00
2017-12-26T06:13:10.084Z,30.00
2017-12-26T06:15:37.697Z,30.00
2017-12-26T06:18:05.231Z,30.00
2017-12-26T06:20:32.797Z,30.00
2017-12-26T06:23:00.369Z,30.00
2017-12-26T06:25:27.927Z,30.00
2017-12-26T06:27:55.571Z,30.00
2017-12-26T06:30:23.879Z,29.80
2017-12-26T06:32:51.484Z,29.80
2017-12-26T06:35:19.043Z,29.80
2017-12-26T06:37:46.604Z,29.80
2017-12-26T06:40:14.174Z,29.80
2017-12-26T06:42:42.511Z,29.80
2017-12-26T06:45:10.175Z,29.70
2017-12-26T06:47:37.793Z,30.00
2017-12-26T06:50:05.335Z,30.00
2017-12-26T06:52:33.829Z,29.60
2017-12-26T06:55:01.383Z,29.60
2017-12-26T06:57:29.722Z,29.80
2017-12-26T06:59:57.281Z,29.90
2017-12-26T07:02:25.903Z,29.90
2017-12-26T07:04:54.259Z,29.90
2017-12-26T07:07:22.799Z,29.90
2017-12-26T07:09:50.565Z,30.00
2017-12-26T07:12:18.185Z,30.00
2017-12-26T07:14:46.707Z,29.90
2017-12-26T07:17:14.325Z,30.00
2017-12-26T07:19:42.656Z,30.00
2017-12-26T07:22:15.981Z,30.00
2017-12-26T07:24:43.529Z,30.00
2017-12-26T07:27:11.101Z,30.10
2017-12-26T07:29:38.712Z,30.10
2017-12-26T07:32:06.357Z,30.70
2017-12-26T07:34:33.931Z,30.40
2017-12-26T07:37:01.543Z,30.60
2017-12-26T07:39:29.104Z,30.50
2017-12-26T07:41:56.667Z,32.80
2017-12-26T07:44:25.031Z,35.50
2017-12-26T07:46:52.607Z,35.50
2017-12-26T07:49:20.190Z,42.50
2017-12-26T07:51:47.751Z,47.60
2017-12-26T07:54:15.442Z,48.10
2017-12-26T07:56:43.025Z,49.40
2017-12-26T07:59:10.677Z,46.60
2017-12-26T08:01:38.249Z,43.00
2017-12-26T08:04:05.869Z,41.30
2017-12-26T08:06:33.450Z,40.40
2017-12-26T08:09:01.037Z,39.10
2017-12-26T08:11:28.636Z,39.10
2017-12-26T08:13:56.258Z,39.10
2017-12-26T08:16:23.872Z,39.10
2017-12-26T08:18:51.506Z,39.20
2017-12-26T08:21:20.014Z,36.40
2017-12-26T08:23:47.602Z,36.50
2017-12-26T08:26:15.239Z,36.10
2017-12-26T08:28:42.814Z,35.70
2017-12-26T08:31:10.402Z,34.70
2017-12-26T08:33:38.530Z,33.40
2017-12-26T08:36:06.213Z,33.40
2017-12-26T08:38:33.782Z,33.30
2017-12-26T08:41:01.383Z,33.30
2017-12-26T08:43:29.694Z,32.50
2017-12-26T08:45:57.321Z,32.50
2017-12-26T08:48:26.574Z,31.60
2017-12-26T08:50:54.319Z,31.60
2017-12-26T08:53:21.882Z,31.20
2017-12-26T08:55:49.450Z,30.80
2017-12-26T08:58:17.154Z,30.30
2017-12-26T09:00:45.464Z,29.80
2017-12-26T09:03:13.054Z,29.70
2017-12-26T09:05:40.621Z,29.50
2017-12-26T09:08:08.224Z,29.10
2017-12-26T09:10:36.572Z,28.10
2017-12-26T09:13:04.247Z,28.30
2017-12-26T09:15:32.612Z,27.90
2017-12-26T09:18:00.273Z,27.90
2017-12-26T09:20:28.053Z,27.90
2017-12-26T09:22:56.054Z,27.90
2017-12-26T09:25:23.624Z,28.00
2017-12-26T09:27:51.248Z,27.90
2017-12-26T09:30:19.574Z,27.90
2017-12-26T09:32:47.126Z,27.90
2017-12-26T09:35:14.718Z,27.90
2017-12-26T09:37:42.458Z,27.90
2017-12-26T09:40:10.062Z,27.80
2017-12-26T09:42:37.664Z,27.30
2017-12-26T09:45:05.200Z,27.00
2017-12-26T09:47:33.557Z,26.70
2017-12-26T09:50:01.156Z,26.70
2017-12-26T09:52:28.736Z,26.20
2017-12-26T09:54:56.318Z,26.50
2017-12-26T09:57:24.076Z,26.30
2017-12-26T09:59:52.014Z,26.30
2017-12-26T10:02:19.794Z,26.00
2017-12-26T10:04:47.482Z,26.00
2017-12-26T10:07:15.273Z,25.80
2017-12-26T10:09:43.619Z,25.90
2017-12-26T10:12:11.190Z,25.90
2017-12-26T10:14:38.747Z,25.60
2017-12-26T10:17:06.368Z,25.60
2017-12-26T10:19:33.903Z,25.60
2017-12-26T10:22:02.298Z,25.40
2017-12-26T10:24:29.980Z,25.40
2017-12-26T10:26:57.558Z,25.60
2017-12-26T10:29:25.157Z,25.50
2017-12-26T10:31:53.619Z,25.30
2017-12-26T10:34:21.204Z,25.40
2017-12-26T10:36:49.532Z,25.60
2017-12-26T10:39:17.105Z,25.60
2017-12-26T10:41:44.883Z,25.40
2017-12-26T10:44:12.440Z,25.60
2017-12-26T10:46:40.037Z,25.30
2017-12-26T10:49:07.811Z,25.40
2017-12-26T10:51:35.417Z,25.50
2017-12-26T10:54:03.133Z,25.50
2017-12-26T10:56:30.743Z,25.50
2017-12-26T10:58:58.388Z,25.60
2017-12-26T11:01:26.054Z,25.50
2017-12-26T11:03:53.627Z,25.60
2017-12-26T11:06:21.208Z,25.50
2017-12-26T11:08:49.562Z,25.40
2017-12-26T11:11:17.149Z,25.40
2017-12-26T11:13:45.497Z,25.30
2017-12-26T11:16:13.099Z,25.40
2017-12-26T11:18:40.783Z,25.30
2017-12-26T11:21:08.367Z,25.30
2017-12-26T11:23:35.968Z,25.30
2017-12-26T11:26:04.536Z,25.30
2017-12-26T11:28:32.137Z,25.20
2017-12-26T11:30:59.709Z,25.20
2017-12-26T11:33:27.277Z,25.30
2017-12-26T11:35:54.863Z,25.10
2017-12-26T11:38:22.427Z,25.30
2017-12-26T11:40:50.023Z,25.50
2017-12-26T11:43:17.624Z,25.30
2017-12-26T11:45:45.175Z,25.30
2017-12-26T11:48:12.779Z,25.40
2017-12-26T11:50:41.288Z,25.50
2017-12-26T11:53:08.871Z,25.50
2017-12-26T11:55:36.435Z,25.40
2017-12-26T11:58:04.027Z,25.40
2017-12-26T12:00:31.601Z,25.40
2017-12-26T12:02:59.931Z,25.40
2017-12-26T12:05:27.784Z,25.50
2017-12-26T12:07:55.365Z,25.60
2017-12-26T12:10:22.913Z,25.60
2017-12-26T12:12:50.494Z,25.70
2017-12-26T12:15:18.083Z,25.80
2017-12-26T12:17:46.393Z,26.30
2017-12-26T12:20:13.995Z,25.70
2017-12-26T12:22:41.564Z,25.80
2017-12-26T12:25:09.236Z,25.80
2017-12-26T12:27:36.859Z,25.90
2017-12-26T12:30:04.429Z,25.90
2017-12-26T12:32:32.052Z,25.70
2017-12-26T12:34:59.629Z,26.00
2017-12-26T12:37:27.240Z,26.00
2017-12-26T12:39:54.922Z,26.10
2017-12-26T12:42:23.243Z,26.10
2017-12-26T12:44:50.827Z,26.10
2017-12-26T12:47:18.487Z,26.10
2017-12-26T12:49:46.040Z,26.10
2017-12-26T12:52:13.629Z,26.00
2017-12-26T12:54:41.992Z,26.00
2017-12-26T12:57:09.574Z,26.00
2017-12-26T12:59:37.938Z,26.00
2017-12-26T13:02:05.550Z,26.00
2017-12-26T13:04:33.136Z,26.20
2017-12-26T13:07:02.365Z,26.00
2017-12-26T13:09:30.706Z,25.90
2017-12-26T13:11:58.315Z,25.90
2017-12-26T13:14:26.713Z,26.10
2017-12-26T13:16:54.378Z,26.10
2017-12-26T13:19:21.981Z,25.90
2017-12-26T13:21:51.139Z,26.10
2017-12-26T13:24:18.939Z,26.20
2017-12-26T13:26:46.508Z,26.10
2017-12-26T13:29:14.939Z,25.90
2017-12-26T13:31:42.480Z,26.00
2017-12-26T13:34:10.084Z,25.80
2017-12-26T13:36:37.627Z,25.90
2017-12-26T13:39:05.287Z,25.80
2017-12-26T13:41:32.990Z,25.60
2017-12-26T13:44:01.326Z,25.60
2017-12-26T13:46:29.067Z,25.70
2017-12-26T13:48:56.633Z,25.80
2017-12-26T13:51:24.203Z,25.70
2017-12-26T13:53:51.825Z,25.60
2017-12-26T13:56:20.119Z,26.10
2017-12-26T13:58:48.423Z,25.60
2017-12-26T14:01:16.053Z,25.80
2017-12-26T14:03:44.453Z,25.80
2017-12-26T14:06:14.595Z,25.80
2017-12-26T14:08:42.197Z,25.70
2017-12-26T14:11:09.796Z,25.80
2017-12-26T14:13:37.361Z,25.90
2017-12-26T14:16:04.936Z,25.80
2017-12-26T14:18:32.489Z,25.90
2017-12-26T14:21:00.900Z,26.00
2017-12-26T14:23:28.443Z,26.00
2017-12-26T14:25:56.263Z,26.00
2017-12-26T14:28:23.866Z,26.20
2017-12-26T14:30:51.415Z,26.10
2017-12-26T14:33:19.021Z,26.00
2017-12-26T14:35:47.348Z,25.90
2017-12-26T14:38:14.932Z,26.00
2017-12-26T14:40:42.507Z,26.00
2017-12-26T14:43:10.079Z,26.00
2017-12-26T14:45:38.446Z,25.90
2017-12-26T14:48:06.105Z,25.90
2017-12-26T14:50:33.729Z,25.90
2017-12-26T14:53:01.273Z,25.70
2017-12-26T14:55:28.860Z,25.80
2017-12-26T14:57:56.505Z,25.60
2017-12-26T15:00:24.103Z,25.80
2017-12-26T15:02:51.657Z,25.50
2017-12-26T15:05:19.381Z,25.60
2017-12-26T15:07:46.947Z,25.60
2017-12-26T15:10:14.601Z,25.60
2017-12-26T15:12:42.191Z,25.20
2017-12-26T15:15:09.817Z,25.40
2017-12-26T15:17:37.379Z,25.30
2017-12-26T15:20:05.143Z,25.30
2017-12-26T15:22:32.667Z,25.30
2017-12-26T15:25:01.046Z,25.30
2017-12-26T15:27:29.357Z,25.30
2017-12-26T15:29:56.995Z,25.40
2017-12-26T15:32:25.378Z,25.60
2017-12-26T15:34:53.889Z,25.50
2017-12-26T15:37:21.470Z,25.50
2017-12-26T15:39:49.051Z,25.20
2017-12-26T15:42:16.621Z,25.00
2017-12-26T15:44:45.023Z,24.90
2017-12-26T15:47:13.365Z,25.10
2017-12-26T15:49:40.987Z,25.20
2017-12-26T15:52:08.556Z,25.40
2017-12-26T15:54:36.108Z,25.60
2017-12-26T15:57:03.705Z,25.70
2017-12-26T15:59:31.274Z,25.80
2017-12-26T16:01:59.691Z,26.30
2017-12-26T16:04:27.269Z,26.30
2017-12-26T16:06:54.881Z,26.50
2017-12-26T16:09:23.225Z,26.80
2017-12-26T16:11:50.857Z,26.80
2017-12-26T16:14:18.532Z,26.40
2017-12-26T16:16:46.893Z,26.20
2017-12-26T16:19:14.469Z,26.20
2017-12-26T16:21:42.036Z,25.80
2017-12-26T16:24:09.615Z,25.80
2017-12-26T16:26:37.255Z,26.40
2017-12-26T16:29:04.819Z,25.80
2017-12-26T16:31:32.396Z,26.20
2017-12-26T16:34:01.610Z,26.00
2017-12-26T16:36:29.160Z,26.00
2017-12-26T16:38:56.735Z,25.70
2017-12-26T16:41:24.369Z,26.50
2017-12-26T16:43:51.920Z,27.10
2017-12-26T16:46:19.606Z,26.70
2017-12-26T16:48:47.210Z,28.00
2017-12-26T16:51:14.813Z,27.60
2017-12-26T16:53:42.362Z,27.60
2017-12-26T16:56:09.949Z,28.10
2017-12-26T16:58:37.522Z,28.10
2017-12-26T17:01:05.867Z,28.20
2017-12-26T17:03:33.466Z,28.10
2017-12-26T17:06:01.791Z,28.20
2017-12-26T17:08:29.392Z,28.20
2017-12-26T17:10:57.197Z,28.20
2017-12-26T17:13:24.780Z,28.20
2017-12-26T17:15:52.330Z,28.80
2017-12-26T17:18:19.917Z,28.70
2017-12-26T17:20:48.246Z,31.10
2017-12-26T17:23:15.864Z,31.30
2017-12-26T17:25:43.450Z,31.50
2017-12-26T17:28:11.910Z,31.20
2017-12-26T17:30:39.516Z,31.10
2017-12-26T17:33:07.692Z,29.90
2017-12-26T17:35:35.304Z,29.30
2017-12-26T17:38:02.932Z,28.30
2017-12-26T17:40:30.494Z,28.30
2017-12-26T17:42:58.068Z,28.30
2017-12-26T17:45:25.656Z,28.30
2017-12-26T17:47:54.022Z,28.30
2017-12-26T17:50:21.575Z,28.20
2017-12-26T17:52:49.184Z,28.20
2017-12-26T17:55:16.730Z,28.20
2017-12-26T17:57:44.338Z,28.10
2017-12-26T18:00:11.926Z,27.80
2017-12-26T18:02:39.472Z,28.00
2017-12-26T18:05:07.093Z,28.20
2017-12-26T18:07:35.604Z,28.20
2017-12-26T18:10:03.206Z,28.20
2017-12-26T18:12:31.614Z,28.20
2017-12-26T18:14:59.200Z,28.20
2017-12-26T18:17:26.780Z,28.20
2017-12-26T18:19:54.381Z,28.20
2017-12-26T18:22:21.927Z,28.20
2017-12-26T18:24:49.562Z,28.20
2017-12-26T18:27:17.121Z,28.10
2017-12-26T18:29:44.805Z,28.20
2017-12-26T18:32:13.199Z,28.20
2017-12-26T18:34:40.844Z,28.10
2017-12-26T18:37:09.218Z,28.20
2017-12-26T18:39:37.554Z,28.30
2017-12-26T18:42:05.169Z,28.20
2017-12-26T18:44:33.515Z,27.90
2017-12-26T18:47:01.089Z,28.00
2017-12-26T18:49:29.714Z,28.10
2017-12-26T18:51:57.293Z,28.70
2017-12-26T18:54:24.920Z,28.10
2017-12-26T18:56:52.603Z,28.10
2017-12-26T18:59:20.197Z,28.10
2017-12-26T19:01:48.134Z,28.10
2017-12-26T19:04:15.719Z,28.10
2017-12-26T19:06:43.317Z,28.10
2017-12-26T19:09:11.895Z,28.20
2017-12-26T19:11:39.488Z,28.10
2017-12-26T19:14:07.046Z,28.10
2017-12-26T19:16:34.641Z,28.20
2017-12-26T19:19:02.227Z,28.10
2017-12-26T19:21:29.803Z,28.10
2017-12-26T19:23:58.128Z,28.10
2017-12-26T19:26:25.721Z,28.10
2017-12-26T19:28:53.297Z,28.20
2017-12-26T19:31:21.620Z,28.20
2017-12-26T19:33:49.329Z,28.10
2017-12-26T19:36:16.925Z,28.20
2017-12-26T19:38:44.709Z,28.20
2017-12-26T19:41:12.288Z,28.20
2017-12-26T19:43:40.637Z,28.20
2017-12-26T19:46:08.251Z,28.20
2017-12-26T19:48:35.866Z,28.20
2017-12-26T19:51:03.446Z,28.20
2017-12-26T19:53:31.275Z,28.20
2017-12-26T19:55:58.879Z,28.20
2017-12-26T19:58:26.446Z,28.20
2017-12-26T20:00:54.050Z,28.20
2017-12-26T20:03:21.663Z,28.20
2017-12-26T20:05:49.276Z,28.20
2017-12-26T20:08:16.997Z,28.20
2017-12-26T20:10:44.816Z,28.20
2017-12-26T20:13:12.414Z,28.20
2017-12-26T20:15:39.991Z,28.20
2017-12-26T20:18:08.321Z,28.20
2017-12-26T20:20:35.904Z,28.20
2017-12-26T20:23:03.526Z,28.20
2017-12-26T20:25:31.141Z,28.20
2017-12-26T20:28:13.733Z,28.20
2017-12-26T20:30:41.323Z,28.30
2017-12-26T20:33:09.675Z,28.30
2017-12-26T20:35:37.298Z,28.40
2017-12-26T20:38:04.909Z,28.20
2017-12-26T20:40:32.572Z,28.20
2017-12-26T20:43:00.193Z,28.20
2017-12-26T20:45:27.748Z,28.20
2017-12-26T20:47:55.529Z,28.20
2017-12-26T20:50:23.264Z,28.20
2017-12-26T20:52:50.847Z,28.20
2017-12-26T20:55:18.477Z,28.20
2017-12-26T20:57:46.050Z,28.50
2017-12-26T21:00:13.657Z,28.70
2017-12-26T21:02:41.361Z,28.20
2017-12-26T21:05:08.926Z,28.20
2017-12-26T21:07:36.515Z,28.20
2017-12-26T21:10:04.246Z,28.20
2017-12-26T21:12:31.849Z,28.70
2017-12-26T21:14:59.495Z,28.20
2017-12-26T21:17:27.150Z,28.50
2017-12-26T21:19:55.460Z,28.20
2017-12-26T21:22:23.075Z,28.20
2017-12-26T21:24:50.663Z,28.30
2017-12-26T21:27:18.283Z,28.40
2017-12-26T21:29:45.908Z,28.60
2017-12-26T21:32:13.515Z,28.50
2017-12-26T21:34:41.122Z,28.20
2017-12-26T21:37:08.720Z,28.20
2017-12-26T21:39:37.128Z,28.20
2017-12-26T21:42:04.680Z,28.20
2017-12-26T21:44:32.279Z,28.20
2017-12-26T21:46:59.846Z,28.20
2017-12-26T21:49:27.467Z,28.20
2017-12-26T21:51:55.075Z,28.20
2017-12-26T21:54:22.622Z,28.20
2017-12-26T21:56:50.175Z,28.20
2017-12-26T21:59:17.771Z,28.30
2017-12-26T22:01:46.232Z,28.20
2017-12-26T22:04:13.827Z,28.20
2017-12-26T22:06:41.498Z,28.80
2017-12-26T22:09:09.077Z,28.20
2017-12-26T22:11:36.804Z,28.20
2017-12-26T22:14:05.209Z,28.60
2017-12-26T22:16:32.825Z,28.70
2017-12-26T22:19:00.731Z,28.70
2017-12-26T22:21:28.283Z,28.80
2017-12-26T22:23:56.162Z,28.60
2017-12-26T22:26:23.952Z,28.60
2017-12-26T22:28:51.626Z,28.70
2017-12-26T22:31:19.252Z,28.80
2017-12-26T22:33:47.004Z,28.30
2017-12-26T22:36:14.586Z,28.80
2017-12-26T22:38:42.445Z,28.70
2017-12-26T22:41:10.031Z,28.70
2017-12-26T22:43:37.798Z,28.80
2017-12-26T22:46:05.361Z,28.70
2017-12-26T22:48:32.946Z,28.80
2017-12-26T22:51:01.270Z,28.70
2017-12-26T22:53:28.890Z,28.70
2017-12-26T22:55:57.235Z,28.80
2017-12-26T22:58:24.825Z,28.70
2017-12-26T23:00:53.151Z,28.80
2017-12-26T23:03:20.695Z,28.70
2017-12-26T23:05:48.404Z,29.10
2017-12-26T23:08:15.955Z,29.20
2017-12-26T23:10:43.523Z,29.10
2017-12-26T23:13:11.089Z,29.00
2017-12-26T23:15:44.676Z,29.00
2017-12-26T23:18:24.219Z,28.90
2017-12-26T23:20:58.390Z,28.90
2017-12-26T23:23:31.535Z,28.90
2017-12-26T23:26:04.712Z,28.90
2017-12-26T23:28:37.824Z,29.10
2017-12-26T23:31:11.698Z,29.10
2017-12-26T23:33:45.046Z,29.10
2017-12-26T23:36:18.394Z,29.10
2017-12-26T23:38:51.533Z,29.20
2017-12-26T23:41:24.824Z,29.40
2017-12-26T23:43:58.337Z,29.60
2017-12-26T23:46:31.462Z,29.60
2017-12-26T23:49:04.693Z,29.70
2017-12-26T23:51:38.745Z,29.60
2017-12-26T23:54:12.097Z,29.60
2017-12-26T23:56:45.231Z,29.80
2017-12-26T23:59:18.468Z,29.70
